createdAt,value
2023-05-12T00:01:56.320Z,15.43
2023-05-12T00:04:24.442Z,10.57
2023-05-12T00:06:52.066Z,12.00
2023-05-12T00:09:19.482Z,18.85
2023-05-12T00:11:48.684Z,13.70
2023-05-12T00:14:17.303Z,13.48
2023-05-12T00:16:45.039Z,8.60
2023-05-12T00:19:12.875Z,7.25
2023-05-12T00:21:41.994Z,16.88
2023-05-12T00:24:09.737Z,12.98
2023-05-12T00:26:37.234Z,12.50
2023-05-12T00:29:04.992Z,13.85
2023-05-12T00:31:33.129Z,12.32
2023-05-12T00:34:00.681Z,8.55
2023-05-12T00:36:28.391Z,11.20
2023-05-12T00:38:57.106Z,12.10
2023-05-12T00:41:25.125Z,7.25
2023-05-12T00:43:52.687Z,13.25
2023-05-12T00:46:20.659Z,9.55
2023-05-12T00:48:55.410Z,7.18
2023-05-12T00:51:23.217Z,14.32
2023-05-12T00:53:51.015Z,9.77
2023-05-12T00:56:20.354Z,7.20
2023-05-12T00:58:47.846Z,10.15
2023-05-12T01:01:15.473Z,11.93
2023-05-12T01:03:42.838Z,14.30
2023-05-12T01:06:22.891Z,11.18
2023-05-12T01:08:50.519Z,13.32
2023-05-12T01:11:18.058Z,9.38
2023-05-12T01:13:45.297Z,15.30
2023-05-12T01:16:14.287Z,10.13
2023-05-12T01:18:43.613Z,16.80
2023-05-12T01:21:11.188Z,14.98
2023-05-12T01:23:43.442Z,11.57
2023-05-12T01:26:11.133Z,10.10
2023-05-12T01:28:38.550Z,12.45
2023-05-12T01:31:07.595Z,11.90
2023-05-12T01:33:35.404Z,11.93
2023-05-12T01:36:02.868Z,9.55
2023-05-12T01:38:30.395Z,9.48
2023-05-12T01:40:57.984Z,12.55
2023-05-12T01:43:25.392Z,12.45
2023-05-12T01:45:52.696Z,9.45
2023-05-12T01:48:19.982Z,13.93
2023-05-12T01:50:47.340Z,13.52
2023-05-12T01:53:15.003Z,9.85
2023-05-12T01:55:42.508Z,11.32
2023-05-12T01:58:09.859Z,12.63
2023-05-12T02:00:39.617Z,11.68
2023-05-12T02:03:07.132Z,7.88
2023-05-12T02:05:37.037Z,8.43
2023-05-12T02:08:07.513Z,13.48
2023-05-12T02:10:35.062Z,17.17
2023-05-12T02:13:05.026Z,11.70
2023-05-12T02:15:32.403Z,10.55
2023-05-12T02:17:59.911Z,11.63
2023-05-12T02:20:29.521Z,22.70
2023-05-12T02:22:57.236Z,9.48
2023-05-12T02:25:24.893Z,8.70
2023-05-12T02:27:52.319Z,9.00
2023-05-12T02:30:20.249Z,10.85
2023-05-12T02:32:48.023Z,10.48
2023-05-12T02:35:15.748Z,15.52
2023-05-12T02:37:43.250Z,10.88
2023-05-12T02:40:11.072Z,8.77
2023-05-12T02:42:39.584Z,11.77
2023-05-12T02:45:08.491Z,12.50
2023-05-12T02:47:36.678Z,10.00
2023-05-12T02:50:04.987Z,9.75
2023-05-12T02:52:33.015Z,10.75
2023-05-12T02:55:01.120Z,17.08
2023-05-12T02:57:34.330Z,12.10
2023-05-12T03:00:02.438Z,16.27
2023-05-12T03:02:30.589Z,10.50
2023-05-12T03:04:58.240Z,31.17
2023-05-12T03:07:26.167Z,17.30
2023-05-12T03:09:53.470Z,11.05
2023-05-12T03:12:21.238Z,12.13
2023-05-12T03:14:48.790Z,13.93
2023-05-12T03:17:16.262Z,16.02
2023-05-12T03:19:43.961Z,12.65
2023-05-12T03:22:11.623Z,13.73
2023-05-12T03:24:39.496Z,12.35
2023-05-12T03:27:07.079Z,14.82
2023-05-12T03:29:34.545Z,18.40
2023-05-12T03:32:02.065Z,24.10
2023-05-12T03:34:29.747Z,16.88
2023-05-12T03:36:57.231Z,16.77
2023-05-12T03:39:25.324Z,17.40
2023-05-12T03:41:52.888Z,18.55
2023-05-12T03:44:20.689Z,17.40
2023-05-12T03:46:48.343Z,13.88
2023-05-12T03:49:15.688Z,18.52
2023-05-12T03:51:43.248Z,22.10
2023-05-12T03:54:10.889Z,14.63
2023-05-12T03:56:38.584Z,14.02
2023-05-12T03:59:06.573Z,15.80
2023-05-12T04:01:34.309Z,11.45
2023-05-12T04:04:01.856Z,13.63
2023-05-12T04:06:29.398Z,11.50
2023-05-12T04:08:56.579Z,7.95
2023-05-12T04:11:24.004Z,12.98
2023-05-12T04:13:51.484Z,11.00
2023-05-12T04:16:18.844Z,13.77
2023-05-12T04:18:46.471Z,13.55
2023-05-12T04:21:14.624Z,10.48
2023-05-12T04:23:42.550Z,12.48
2023-05-12T04:26:10.306Z,20.77
2023-05-12T04:28:40.448Z,16.13
2023-05-12T04:31:07.445Z,13.75
2023-05-12T04:33:34.445Z,9.18
2023-05-12T04:36:01.573Z,11.10
2023-05-12T04:38:28.675Z,11.95
2023-05-12T04:41:00.020Z,12.93
2023-05-12T04:46:00.401Z,14.55
2023-05-12T04:48:29.153Z,12.40
2023-05-12T04:50:56.218Z,15.77
2023-05-12T04:53:23.178Z,11.70
2023-05-12T04:55:51.336Z,12.13
2023-05-12T04:58:18.418Z,11.63
2023-05-12T05:00:45.441Z,17.30
2023-05-12T05:03:12.637Z,15.23
2023-05-12T05:05:39.916Z,22.98
2023-05-12T05:08:06.996Z,29.67
2023-05-12T05:10:34.507Z,12.93
2023-05-12T05:13:01.562Z,13.48
2023-05-12T05:16:03.537Z,14.93
2023-05-12T05:18:30.850Z,20.10
2023-05-12T05:20:59.024Z,17.73
2023-05-12T05:23:26.860Z,15.70
2023-05-12T05:25:53.997Z,12.00
2023-05-12T05:28:21.461Z,13.77
2023-05-12T05:30:48.507Z,11.55
2023-05-12T05:33:15.496Z,18.42
2023-05-12T05:35:42.716Z,12.57
2023-05-12T05:38:09.689Z,13.05
2023-05-12T05:40:49.249Z,10.60
2023-05-12T05:45:45.996Z,8.52
2023-05-12T05:48:13.427Z,27.67
2023-05-12T05:50:41.451Z,9.50
2023-05-12T05:53:08.479Z,17.45
2023-05-12T05:55:35.671Z,10.05
2023-05-12T05:58:02.582Z,11.25
2023-05-12T06:00:29.999Z,12.77
2023-05-12T06:02:57.434Z,9.60
2023-05-12T06:05:24.592Z,13.43
2023-05-12T06:07:51.580Z,19.55
2023-05-12T06:10:18.991Z,13.02
2023-05-12T06:12:46.297Z,14.43
2023-05-12T06:15:13.380Z,20.42
2023-05-12T06:17:40.649Z,10.73
2023-05-12T06:20:08.426Z,11.98
2023-05-12T06:22:35.543Z,14.45
2023-05-12T06:25:03.980Z,14.13
2023-05-12T06:27:31.360Z,16.80
2023-05-12T06:29:58.342Z,15.32
2023-05-12T06:32:25.572Z,9.15
2023-05-12T06:34:55.331Z,10.23
2023-05-12T06:37:22.270Z,12.20
2023-05-12T06:39:49.341Z,17.10
2023-05-12T06:42:16.340Z,14.23
2023-05-12T06:44:43.525Z,16.83
2023-05-12T06:47:10.598Z,8.15
2023-05-12T06:49:38.819Z,8.70
2023-05-12T06:52:06.791Z,15.85
2023-05-12T06:54:33.927Z,9.15
2023-05-12T06:57:01.359Z,12.38
2023-05-12T06:59:28.498Z,24.52
2023-05-12T07:01:55.993Z,12.20
2023-05-12T07:04:23.647Z,13.07
2023-05-12T07:07:02.960Z,15.35
2023-05-12T07:09:29.926Z,11.07
2023-05-12T07:11:56.910Z,8.80
2023-05-12T07:14:23.891Z,13.15
2023-05-12T07:16:51.793Z,13.20
2023-05-12T07:19:18.890Z,14.70
2023-05-12T07:21:45.846Z,9.43
2023-05-12T07:24:14.185Z,8.05
2023-05-12T07:26:41.132Z,15.50
2023-05-12T07:29:13.422Z,15.05
2023-05-12T07:31:40.911Z,9.55
2023-05-12T07:34:08.452Z,18.90
2023-05-12T07:36:35.702Z,10.27
2023-05-12T07:39:02.819Z,7.47
2023-05-12T07:41:31.932Z,10.57
2023-05-12T07:44:02.878Z,20.23
2023-05-12T07:46:29.981Z,11.40
2023-05-12T07:48:57.483Z,21.05
2023-05-12T07:51:24.602Z,21.05
2023-05-12T07:53:51.552Z,9.82
2023-05-12T07:56:18.492Z,12.13
2023-05-12T07:58:47.297Z,10.18
2023-05-12T08:01:14.642Z,10.52
2023-05-12T08:03:41.733Z,7.28
2023-05-12T08:06:08.863Z,7.85
2023-05-12T08:08:36.647Z,7.80
2023-05-12T08:11:03.681Z,11.27
2023-05-12T08:13:30.815Z,5.82
2023-05-12T08:15:57.742Z,8.60
2023-05-12T08:18:24.915Z,9.90
2023-05-12T08:20:51.912Z,11.02
2023-05-12T08:23:20.205Z,6.53
2023-05-12T08:25:48.645Z,5.90
2023-05-12T08:28:15.752Z,10.85
2023-05-12T08:30:42.939Z,6.32
2023-05-12T08:33:10.001Z,10.73
2023-05-12T08:35:37.059Z,4.93
2023-05-12T08:38:04.556Z,6.25
2023-05-12T08:41:06.509Z,5.53
2023-05-12T08:46:21.202Z,15.70
2023-05-12T08:48:53.861Z,14.25
2023-05-12T08:51:21.580Z,8.52
2023-05-12T08:53:50.126Z,8.00
2023-05-12T08:58:55.587Z,11.25
2023-05-12T09:01:23.629Z,9.90
2023-05-12T09:03:53.023Z,12.95
2023-05-12T09:06:20.420Z,8.77
2023-05-12T09:08:47.629Z,4.18
2023-05-12T09:11:14.943Z,9.27
2023-05-12T09:14:00.614Z,13.55
2023-05-12T09:16:33.874Z,10.25
2023-05-12T09:19:03.976Z,15.20
2023-05-12T09:21:34.736Z,13.50
2023-05-12T09:24:06.649Z,7.57
2023-05-12T09:26:56.196Z,10.52
2023-05-12T09:29:31.793Z,15.32
2023-05-12T09:32:03.096Z,6.53
2023-05-12T09:34:41.225Z,4.50
2023-05-12T09:37:08.749Z,15.88
2023-05-12T09:39:36.969Z,10.52
2023-05-12T09:42:04.284Z,8.60
2023-05-12T09:44:32.696Z,13.43
2023-05-12T09:47:10.559Z,3.88
2023-05-12T09:49:38.669Z,6.93
2023-05-12T09:52:06.172Z,22.25
2023-05-12T09:54:34.625Z,14.15
2023-05-12T09:57:05.520Z,15.48
2023-05-12T09:59:34.933Z,7.40
2023-05-12T10:02:06.094Z,9.45
2023-05-12T10:04:41.796Z,8.95
2023-05-12T10:07:12.217Z,5.88
2023-05-12T10:09:42.334Z,7.53
2023-05-12T10:12:10.304Z,10.48
2023-05-12T10:14:38.162Z,9.00
2023-05-12T10:17:12.988Z,13.38
2023-05-12T10:19:43.550Z,4.05
2023-05-12T10:22:11.705Z,5.45
2023-05-12T10:24:39.983Z,7.97
2023-05-12T10:27:08.426Z,20.00
2023-05-12T10:29:39.859Z,4.78
2023-05-12T10:32:11.188Z,4.93
2023-05-12T10:34:44.716Z,9.45
2023-05-12T10:37:15.353Z,7.22
2023-05-12T10:39:57.021Z,6.10
2023-05-12T10:42:26.215Z,14.65
2023-05-12T10:45:14.659Z,9.35
2023-05-12T10:47:43.611Z,7.30
2023-05-12T10:50:15.054Z,10.38
2023-05-12T10:52:54.336Z,8.25
2023-05-12T10:55:36.805Z,5.05
2023-05-12T10:58:12.301Z,13.27
2023-05-12T11:00:50.782Z,10.98
2023-05-12T11:03:25.822Z,7.30
2023-05-12T11:06:01.252Z,9.60
2023-05-12T11:08:28.756Z,4.72
2023-05-12T11:10:59.187Z,19.40
2023-05-12T11:13:26.414Z,8.25
2023-05-12T11:15:53.679Z,6.57
2023-05-12T11:18:22.025Z,7.35
2023-05-12T11:20:50.130Z,8.90
2023-05-12T11:23:32.493Z,20.27
2023-05-12T11:26:01.935Z,7.00
2023-05-12T11:28:40.150Z,6.70
2023-05-12T11:31:07.346Z,7.22
2023-05-12T11:33:34.396Z,5.88
2023-05-12T11:36:05.444Z,16.35
2023-05-12T11:38:32.489Z,10.05
2023-05-12T11:40:59.676Z,7.03
2023-05-12T11:43:28.533Z,6.43
2023-05-12T11:45:55.937Z,12.20
2023-05-12T11:48:23.452Z,12.35
2023-05-12T11:50:51.495Z,14.25
2023-05-12T11:53:27.702Z,6.75
2023-05-12T11:55:57.445Z,11.70
2023-05-12T11:58:27.034Z,18.73
2023-05-12T12:00:54.630Z,4.95
2023-05-12T12:03:22.840Z,6.47
2023-05-12T12:06:13.183Z,11.55
2023-05-12T12:08:58.284Z,13.73
2023-05-12T12:11:35.012Z,10.88
2023-05-12T12:14:03.041Z,9.10
2023-05-12T12:16:33.744Z,8.40
2023-05-12T12:19:01.280Z,7.20
2023-05-12T12:21:28.391Z,22.05
2023-05-12T12:23:59.191Z,11.63
2023-05-12T12:26:46.306Z,13.05
2023-05-12T12:29:14.879Z,17.23
2023-05-12T12:31:48.611Z,9.65
2023-05-12T12:34:21.689Z,10.00
2023-05-12T12:36:57.002Z,9.35
2023-05-12T12:39:30.308Z,13.85
2023-05-12T12:42:05.222Z,6.57
2023-05-12T12:44:33.700Z,11.00
2023-05-12T12:47:08.247Z,6.63
2023-05-12T12:49:35.777Z,11.68
2023-05-12T12:52:02.843Z,10.48
2023-05-12T12:54:29.943Z,9.23
2023-05-12T12:56:57.128Z,7.43
2023-05-12T12:59:24.104Z,8.00
2023-05-12T13:01:51.122Z,7.97
2023-05-12T13:04:24.629Z,9.52
2023-05-12T13:06:54.626Z,8.38
2023-05-12T13:09:21.838Z,9.07
2023-05-12T13:11:49.095Z,11.50
2023-05-12T13:14:16.360Z,10.43
2023-05-12T13:16:43.582Z,11.55
2023-05-12T13:19:11.167Z,8.95
2023-05-12T13:21:38.303Z,4.97
2023-05-12T13:24:05.509Z,8.77
2023-05-12T13:26:35.073Z,6.32
2023-05-12T13:29:02.539Z,7.72
2023-05-12T13:31:32.387Z,11.20
2023-05-12T13:33:59.569Z,12.50
2023-05-12T13:36:26.987Z,15.10
2023-05-12T13:38:54.016Z,10.27
2023-05-12T13:41:21.150Z,6.72
2023-05-12T13:43:48.394Z,5.20
2023-05-12T13:46:16.122Z,7.88
2023-05-12T13:48:43.224Z,8.73
2023-05-12T13:51:10.889Z,9.10
2023-05-12T13:53:42.215Z,8.32
2023-05-12T13:56:10.098Z,24.13
2023-05-12T13:58:37.237Z,9.57
2023-05-12T14:01:04.998Z,9.68
2023-05-12T14:03:32.780Z,6.57
2023-05-12T14:05:59.824Z,12.35
2023-05-12T14:08:26.874Z,10.82
2023-05-12T14:10:54.084Z,8.85
2023-05-12T14:13:21.438Z,5.43
2023-05-12T14:15:50.169Z,11.32
2023-05-12T14:18:18.126Z,10.45
2023-05-12T14:20:45.674Z,11.93
2023-05-12T14:23:13.074Z,6.15
2023-05-12T14:25:40.289Z,15.02
2023-05-12T14:28:07.383Z,7.72
2023-05-12T14:30:37.784Z,12.48
2023-05-12T14:33:05.663Z,8.93
2023-05-12T14:35:32.981Z,4.90
2023-05-12T14:38:00.235Z,6.57
2023-05-12T14:40:27.816Z,4.30
2023-05-12T14:42:55.593Z,6.50
2023-05-12T14:45:23.017Z,5.97
2023-05-12T14:47:50.342Z,11.45
2023-05-12T14:50:19.051Z,7.25
2023-05-12T14:52:46.489Z,6.05
2023-05-12T14:55:13.998Z,7.80
2023-05-12T14:57:45.314Z,12.15
2023-05-12T15:00:15.268Z,8.65
2023-05-12T15:02:44.143Z,7.90
2023-05-12T15:05:13.718Z,13.57
2023-05-12T15:07:41.031Z,5.25
2023-05-12T15:10:08.622Z,6.53
2023-05-12T15:12:35.961Z,8.77
2023-05-12T15:15:05.245Z,8.07
2023-05-12T15:17:35.554Z,5.88
2023-05-12T15:20:03.320Z,5.50
2023-05-12T15:22:32.415Z,8.02
2023-05-12T15:24:59.902Z,9.02
2023-05-12T15:27:27.284Z,7.05
2023-05-12T15:29:54.330Z,18.63
2023-05-12T15:32:23.826Z,6.63
2023-05-12T15:34:51.030Z,8.48
2023-05-12T15:37:18.157Z,4.38
2023-05-12T15:39:45.416Z,9.60
2023-05-12T15:42:14.701Z,8.88
2023-05-12T15:44:47.326Z,9.95
2023-05-12T15:47:14.417Z,18.42
2023-05-12T15:49:41.536Z,5.25
2023-05-12T15:52:11.548Z,9.80
2023-05-12T15:54:41.473Z,6.47
2023-05-12T15:57:08.727Z,9.40
2023-05-12T15:59:37.530Z,13.98
2023-05-12T16:02:04.945Z,14.10
2023-05-12T16:04:32.488Z,25.55
2023-05-12T16:06:59.812Z,4.68
2023-05-12T16:09:27.038Z,11.73
2023-05-12T16:11:55.035Z,8.15
2023-05-12T16:14:22.347Z,6.13
2023-05-12T16:16:50.839Z,4.28
2023-05-12T16:19:18.613Z,11.30
2023-05-12T16:21:45.675Z,5.85
2023-05-12T16:24:15.359Z,10.77
2023-05-12T16:26:42.559Z,12.88
2023-05-12T16:29:09.669Z,16.40
2023-05-12T16:31:36.819Z,12.07
2023-05-12T16:34:03.937Z,15.15
2023-05-12T16:36:32.277Z,7.18
2023-05-12T16:38:59.943Z,17.02
2023-05-12T16:41:28.682Z,7.80
2023-05-12T16:43:56.091Z,10.45
2023-05-12T16:46:24.486Z,7.68
2023-05-12T16:48:51.692Z,6.82
2023-05-12T16:51:18.711Z,6.63
2023-05-12T16:53:45.766Z,8.73
2023-05-12T16:56:13.113Z,9.80
2023-05-12T16:58:40.611Z,5.97
2023-05-12T17:01:07.919Z,8.07
2023-05-12T17:03:35.213Z,12.18
2023-05-12T17:06:02.489Z,7.97
2023-05-12T17:08:29.535Z,10.90
2023-05-12T17:10:56.664Z,12.10
2023-05-12T17:13:23.745Z,6.65
2023-05-12T17:15:51.571Z,7.82
2023-05-12T17:18:18.906Z,8.77
2023-05-12T17:20:46.239Z,7.28
2023-05-12T17:23:13.257Z,12.13
2023-05-12T17:25:40.472Z,23.58
2023-05-12T17:28:07.568Z,7.35
2023-05-12T17:30:34.811Z,7.10
2023-05-12T17:33:01.914Z,11.40
2023-05-12T17:35:29.374Z,12.98
2023-05-12T17:37:56.474Z,17.08
2023-05-12T17:40:23.628Z,4.28
2023-05-12T17:42:51.608Z,7.60
2023-05-12T17:45:18.975Z,7.57
2023-05-12T17:47:46.590Z,12.65
2023-05-12T17:50:15.051Z,10.13
2023-05-12T17:52:43.656Z,22.40
2023-05-12T17:55:11.528Z,8.77
2023-05-12T17:57:38.712Z,5.88
2023-05-12T18:00:10.317Z,13.38
2023-05-12T18:02:38.793Z,9.93
2023-05-12T18:05:06.711Z,4.90
2023-05-12T18:07:35.195Z,4.70
2023-05-12T18:10:02.608Z,7.80
2023-05-12T18:12:29.912Z,8.93
2023-05-12T18:14:57.407Z,10.40
2023-05-12T18:17:24.641Z,15.57
2023-05-12T18:19:54.984Z,14.10
2023-05-12T18:22:22.210Z,20.23
2023-05-12T18:24:53.302Z,10.70
2023-05-12T18:27:20.826Z,10.68
2023-05-12T18:29:48.441Z,13.48
2023-05-12T18:32:15.711Z,5.65
2023-05-12T18:34:45.652Z,11.75
2023-05-12T18:37:15.783Z,14.73
2023-05-12T18:39:43.503Z,11.50
2023-05-12T18:42:13.894Z,12.65
2023-05-12T18:44:42.363Z,10.38
2023-05-12T18:47:09.533Z,13.95
2023-05-12T18:49:37.587Z,18.58
2023-05-12T18:52:08.232Z,10.75
2023-05-12T18:54:36.617Z,7.50
2023-05-12T18:57:03.828Z,14.00
2023-05-12T18:59:31.498Z,21.50
2023-05-12T19:01:58.578Z,22.83
2023-05-12T19:04:26.031Z,12.75
2023-05-12T19:06:53.838Z,14.02
2023-05-12T19:09:21.315Z,9.85
2023-05-12T19:11:49.040Z,14.85
2023-05-12T19:14:17.511Z,9.00
2023-05-12T19:16:46.888Z,10.57
2023-05-12T19:19:16.516Z,17.60
2023-05-12T19:21:43.665Z,19.02
2023-05-12T19:24:10.961Z,13.13
2023-05-12T19:26:37.974Z,17.73
2023-05-12T19:29:05.339Z,20.92
2023-05-12T19:31:35.535Z,13.55
2023-05-12T19:34:02.906Z,16.27
2023-05-12T19:36:30.984Z,19.05
2023-05-12T19:39:00.446Z,19.30
2023-05-12T19:41:29.131Z,19.27
2023-05-12T19:43:56.625Z,10.73
2023-05-12T19:46:23.928Z,14.10
2023-05-12T19:48:52.041Z,22.85
2023-05-12T19:51:21.298Z,15.55
2023-05-12T19:53:48.514Z,17.77
2023-05-12T19:56:21.808Z,13.82
2023-05-12T19:58:49.463Z,18.33
2023-05-12T20:01:16.760Z,18.58
2023-05-12T20:03:43.907Z,13.73
2023-05-12T20:06:11.251Z,43.17
2023-05-12T20:08:39.286Z,20.95
2023-05-12T20:11:07.820Z,21.98
2023-05-12T20:13:40.334Z,25.20
2023-05-12T20:16:09.411Z,40.10
2023-05-12T20:18:37.960Z,30.92
2023-05-12T20:23:48.859Z,34.58
2023-05-12T20:26:18.637Z,33.44
2023-05-12T20:28:55.169Z,39.70
2023-05-12T20:31:23.711Z,34.95
2023-05-12T20:33:56.369Z,23.20
2023-05-12T20:36:38.537Z,35.15
2023-05-12T20:39:08.738Z,31.10
2023-05-12T20:44:24.008Z,18.92
2023-05-12T20:46:57.723Z,17.65
2023-05-12T20:49:31.792Z,23.58
2023-05-12T20:52:01.413Z,29.45
2023-05-12T20:54:34.953Z,39.03
2023-05-12T20:57:07.901Z,36.55
2023-05-12T20:59:52.997Z,19.75
2023-05-12T21:02:20.182Z,19.33
2023-05-12T21:04:47.564Z,31.95
2023-05-12T21:07:14.986Z,12.57
2023-05-12T21:09:42.134Z,19.65
2023-05-12T21:12:09.542Z,15.88
2023-05-12T21:14:43.656Z,15.38
2023-05-12T21:17:12.131Z,16.50
2023-05-12T21:19:42.789Z,21.90
2023-05-12T21:22:11.242Z,11.88
2023-05-12T21:24:39.513Z,16.08
2023-05-12T21:27:08.330Z,14.70
2023-05-12T21:29:43.843Z,19.70
2023-05-12T21:32:11.724Z,13.50
2023-05-12T21:34:39.046Z,28.73
2023-05-12T21:37:06.808Z,22.27
2023-05-12T21:39:34.318Z,14.85
2023-05-12T21:42:01.686Z,27.08
2023-05-12T21:44:28.872Z,20.13
2023-05-12T21:46:56.493Z,19.35
2023-05-12T21:49:23.747Z,14.88
2023-05-12T21:51:55.060Z,12.00
2023-05-12T21:54:22.139Z,19.00
2023-05-12T21:56:50.725Z,17.00
2023-05-12T21:59:18.136Z,20.52
2023-05-12T22:01:45.424Z,12.70
2023-05-12T22:04:15.254Z,10.82
2023-05-12T22:06:42.538Z,13.20
2023-05-12T22:09:09.573Z,12.35
2023-05-12T22:11:36.785Z,11.63
2023-05-12T22:14:04.439Z,12.57
2023-05-12T22:16:41.269Z,11.77
2023-05-12T22:19:09.736Z,10.43
2023-05-12T22:21:37.203Z,10.63
2023-05-12T22:24:04.583Z,16.35
2023-05-12T22:26:31.720Z,20.88
2023-05-12T22:28:58.895Z,14.63
2023-05-12T22:31:28.766Z,18.02
2023-05-12T22:33:55.892Z,31.25
2023-05-12T22:36:22.890Z,9.77
2023-05-12T22:38:50.042Z,12.50
2023-05-12T22:41:18.839Z,17.15
2023-05-12T22:43:46.392Z,46.15
2023-05-12T22:46:13.476Z,50.95
2023-05-12T22:48:41.046Z,55.08
2023-05-12T22:51:08.400Z,73.97
2023-05-12T22:53:41.541Z,81.03
2023-05-12T22:56:08.692Z,68.15
2023-05-12T22:58:35.913Z,64.13
2023-05-12T23:01:02.985Z,59.67
2023-05-12T23:03:30.512Z,35.45
2023-05-12T23:05:57.587Z,29.23
2023-05-12T23:08:25.165Z,51.25
2023-05-12T23:10:52.235Z,32.08
2023-05-12T23:13:19.453Z,23.10
2023-05-12T23:15:48.749Z,30.50
2023-05-12T23:18:15.826Z,13.90
2023-05-12T23:20:43.122Z,18.70
2023-05-12T23:23:11.246Z,19.75
2023-05-12T23:25:39.017Z,20.85
2023-05-12T23:28:06.677Z,16.40
2023-05-12T23:30:34.036Z,20.20
2023-05-12T23:33:01.232Z,15.20
2023-05-12T23:35:28.688Z,22.27
2023-05-12T23:37:56.013Z,22.08
2023-05-12T23:40:23.512Z,19.67
2023-05-12T23:42:50.881Z,14.57
2023-05-12T23:45:18.672Z,19.35
2023-05-12T23:47:45.735Z,11.70
2023-05-12T23:50:12.909Z,12.32
2023-05-12T23:52:39.886Z,22.85
2023-05-12T23:55:07.836Z,19.60
2023-05-12T23:57:34.973Z,20.02
